createdAt,value
2018-07-31T00:01:10.148Z,58.31
2018-07-31T00:06:22.595Z,58.18
2018-07-31T00:08:56.803Z,58.67
2018-07-31T00:11:30.102Z,58.08
2018-07-31T00:14:03.661Z,58.37
2018-07-31T00:16:37.100Z,58.10
2018-07-31T00:19:10.444Z,58.40
2018-07-31T00:21:43.812Z,58.23
2018-07-31T00:24:17.132Z,57.69
2018-07-31T00:26:50.472Z,57.98
2018-07-31T00:29:23.824Z,58.12
2018-07-31T00:31:57.147Z,58.47
2018-07-31T00:34:30.496Z,58.55
2018-07-31T00:37:04.492Z,57.99
2018-07-31T00:39:37.839Z,58.35
2018-07-31T00:42:11.156Z,58.31
2018-07-31T00:44:44.477Z,58.67
2018-07-31T00:47:17.800Z,58.19
2018-07-31T00:49:51.130Z,58.44
2018-07-31T00:52:24.437Z,59.42
2018-07-31T00:54:57.773Z,58.37
2018-07-31T00:57:31.123Z,58.16
2018-07-31T01:00:05.435Z,58.57
2018-07-31T01:02:38.732Z,58.65
2018-07-31T01:05:12.116Z,58.10
2018-07-31T01:07:45.452Z,58.33
2018-07-31T01:10:18.824Z,58.78
2018-07-31T01:12:52.176Z,58.28
2018-07-31T01:15:25.509Z,58.35
2018-07-31T01:17:58.867Z,58.58
2018-07-31T01:20:32.248Z,58.75
2018-07-31T01:23:05.671Z,58.79
2018-07-31T01:25:39.046Z,58.45
2018-07-31T01:28:12.356Z,58.65
2018-07-31T01:30:45.705Z,58.49
2018-07-31T01:33:19.000Z,59.05
2018-07-31T01:35:52.329Z,59.13
2018-07-31T01:38:25.657Z,58.87
2018-07-31T01:40:58.969Z,58.84
2018-07-31T01:43:32.256Z,59.40
2018-07-31T01:46:05.768Z,58.85
2018-07-31T01:48:39.041Z,59.33
2018-07-31T01:51:12.358Z,58.74
2018-07-31T01:53:45.665Z,59.35
2018-07-31T01:56:19.013Z,58.97
2018-07-31T01:58:52.346Z,59.01
2018-07-31T02:01:25.664Z,58.72
2018-07-31T02:03:58.964Z,59.58
2018-07-31T02:06:32.296Z,58.87
2018-07-31T02:09:07.583Z,59.03
2018-07-31T02:11:40.932Z,59.35
2018-07-31T02:14:14.230Z,59.40
2018-07-31T02:16:47.628Z,59.01
2018-07-31T02:19:20.956Z,58.63
2018-07-31T02:21:54.312Z,58.32
2018-07-31T02:24:27.616Z,58.93
2018-07-31T02:27:00.996Z,59.12
2018-07-31T02:29:39.585Z,58.64
2018-07-31T02:32:12.876Z,59.10
2018-07-31T02:34:46.293Z,59.02
2018-07-31T02:37:19.613Z,58.54
2018-07-31T02:39:52.944Z,59.39
2018-07-31T02:42:26.416Z,59.14
2018-07-31T02:44:59.736Z,59.31
2018-07-31T02:47:33.028Z,59.31
2018-07-31T02:50:07.574Z,58.95
2018-07-31T02:52:41.115Z,59.03
2018-07-31T02:55:14.436Z,59.50
2018-07-31T02:57:47.736Z,59.58
2018-07-31T03:00:21.172Z,59.49
2018-07-31T03:02:54.484Z,59.33
2018-07-31T03:05:27.810Z,59.49
2018-07-31T03:08:01.141Z,59.73
2018-07-31T03:10:35.182Z,59.90
2018-07-31T03:13:08.524Z,59.64
2018-07-31T03:15:41.873Z,59.61
2018-07-31T03:18:15.295Z,59.93
2018-07-31T03:20:48.656Z,60.18
2018-07-31T03:23:21.976Z,60.10
2018-07-31T03:25:55.308Z,59.80
2018-07-31T03:28:28.711Z,60.04
2018-07-31T03:31:02.036Z,59.55
2018-07-31T03:33:35.896Z,59.81
2018-07-31T03:36:09.241Z,59.63
2018-07-31T03:38:42.739Z,59.74
2018-07-31T03:41:16.068Z,59.68
2018-07-31T03:43:49.386Z,60.15
2018-07-31T03:46:22.723Z,60.10
2018-07-31T03:48:57.098Z,59.96
2018-07-31T03:51:30.548Z,59.70
2018-07-31T03:54:05.043Z,59.79
2018-07-31T03:56:38.439Z,59.73
2018-07-31T03:59:11.785Z,60.16
2018-07-31T04:01:45.123Z,60.10
2018-07-31T04:04:18.480Z,60.16
2018-07-31T04:06:51.847Z,60.22
2018-07-31T04:09:25.228Z,60.13
2018-07-31T04:11:58.562Z,59.83
2018-07-31T04:14:31.860Z,60.07
2018-07-31T04:17:05.229Z,59.89
2018-07-31T04:19:38.496Z,60.77
2018-07-31T04:22:11.900Z,60.49
2018-07-31T04:24:45.227Z,60.81
2018-07-31T04:27:18.573Z,60.62
2018-07-31T04:29:51.913Z,60.39
2018-07-31T04:32:25.234Z,60.05
2018-07-31T04:34:58.557Z,60.26
2018-07-31T04:37:31.897Z,59.60
2018-07-31T04:40:06.357Z,60.38
2018-07-31T04:42:39.725Z,59.79
2018-07-31T04:45:13.041Z,59.45
2018-07-31T04:47:46.411Z,59.58
2018-07-31T04:50:19.762Z,58.83
2018-07-31T04:52:53.100Z,59.21
2018-07-31T04:55:26.423Z,58.01
2018-07-31T04:57:59.766Z,58.74
2018-07-31T05:00:33.079Z,58.26
2018-07-31T05:03:07.092Z,58.06
2018-07-31T05:05:40.426Z,57.96
2018-07-31T05:08:13.777Z,58.10
2018-07-31T05:10:47.105Z,56.67
2018-07-31T05:13:20.428Z,57.17
2018-07-31T05:15:53.744Z,56.27
2018-07-31T05:18:27.179Z,54.33
2018-07-31T05:21:00.464Z,55.55
2018-07-31T05:23:33.780Z,56.06
2018-07-31T05:26:08.129Z,55.82
2018-07-31T05:28:41.462Z,53.81
2018-07-31T05:31:14.780Z,55.65
2018-07-31T05:33:48.267Z,54.01
2018-07-31T05:36:21.560Z,54.30
2018-07-31T05:38:54.884Z,52.47
2018-07-31T05:41:28.200Z,52.21
2018-07-31T05:44:02.025Z,51.01
2018-07-31T05:46:36.001Z,53.13
2018-07-31T05:49:09.309Z,50.37
2018-07-31T05:51:42.633Z,50.34
2018-07-31T05:54:15.977Z,49.37
2018-07-31T05:56:49.310Z,50.04
2018-07-31T05:59:22.648Z,52.07
2018-07-31T06:01:56.338Z,49.63
2018-07-31T06:04:29.647Z,49.10
2018-07-31T06:07:02.980Z,47.93
2018-07-31T06:09:36.987Z,46.31
2018-07-31T06:12:10.280Z,47.54
2018-07-31T06:14:43.621Z,47.65
2018-07-31T06:17:17.029Z,46.71
2018-07-31T06:19:50.373Z,46.03
2018-07-31T06:22:23.815Z,47.34
2018-07-31T06:24:57.108Z,47.25
2018-07-31T06:27:30.424Z,44.46
2018-07-31T06:30:03.824Z,43.62
2018-07-31T06:32:38.216Z,45.90
2018-07-31T06:35:11.521Z,44.16
2018-07-31T06:37:44.833Z,44.46
2018-07-31T06:40:18.155Z,45.70
2018-07-31T06:42:51.489Z,42.47
2018-07-31T06:45:24.781Z,41.51
2018-07-31T06:47:58.123Z,41.74
2018-07-31T06:50:31.436Z,41.80
2018-07-31T06:53:05.840Z,43.93
2018-07-31T06:55:39.135Z,41.39
2018-07-31T06:58:12.501Z,42.87
2018-07-31T07:00:45.860Z,39.78
2018-07-31T07:03:19.488Z,42.29
2018-07-31T07:05:52.797Z,43.18
2018-07-31T07:08:26.364Z,45.47
2018-07-31T07:10:59.676Z,44.23
2018-07-31T07:13:33.000Z,40.00
2018-07-31T07:16:07.071Z,38.14
2018-07-31T07:18:40.408Z,40.78
2018-07-31T07:21:13.804Z,38.27
2018-07-31T07:23:47.151Z,40.15
2018-07-31T07:26:20.516Z,37.51
2018-07-31T07:28:53.822Z,38.12
2018-07-31T07:31:27.121Z,38.67
2018-07-31T07:34:00.486Z,37.47
2018-07-31T07:36:33.813Z,37.41
2018-07-31T07:39:10.978Z,37.74
2018-07-31T07:41:44.299Z,37.29
2018-07-31T07:44:17.636Z,36.30
2018-07-31T07:46:50.969Z,36.06
2018-07-31T07:49:24.295Z,35.19
2018-07-31T07:51:57.591Z,36.67
2018-07-31T07:54:30.920Z,37.46
2018-07-31T07:57:04.272Z,36.70
2018-07-31T07:59:38.176Z,35.59
2018-07-31T08:02:11.559Z,35.20
2018-07-31T08:04:44.976Z,34.53
2018-07-31T08:07:18.393Z,34.64
2018-07-31T08:09:51.829Z,35.55
2018-07-31T08:12:25.243Z,36.27
2018-07-31T08:14:58.864Z,34.38
2018-07-31T08:17:32.230Z,35.37
2018-07-31T08:20:06.298Z,34.46
2018-07-31T08:22:39.694Z,35.85
2018-07-31T08:25:13.119Z,33.93
2018-07-31T08:27:46.551Z,34.52
2018-07-31T08:30:19.959Z,33.39
2018-07-31T08:32:53.348Z,33.19
2018-07-31T08:35:27.300Z,35.05
2018-07-31T08:38:00.687Z,33.22
2018-07-31T08:40:34.099Z,30.81
2018-07-31T08:43:07.464Z,31.12
2018-07-31T08:45:40.923Z,31.85
2018-07-31T08:48:14.343Z,30.32
2018-07-31T08:50:47.714Z,32.55
2018-07-31T08:53:21.133Z,31.42
2018-07-31T08:55:54.544Z,30.65
2018-07-31T08:58:27.949Z,28.87
2018-07-31T09:01:01.347Z,27.79
2018-07-31T09:03:34.766Z,29.98
2018-07-31T09:06:08.186Z,28.01
2018-07-31T09:08:41.789Z,28.83
2018-07-31T09:11:15.102Z,27.72
2018-07-31T09:13:48.539Z,27.45
2018-07-31T09:16:21.928Z,28.63
2018-07-31T09:18:55.333Z,29.61
2018-07-31T09:21:28.738Z,31.35
2018-07-31T09:24:02.140Z,28.98
2018-07-31T09:26:35.486Z,29.02
2018-07-31T09:29:08.944Z,28.63
2018-07-31T09:31:42.327Z,27.35
2018-07-31T09:34:15.876Z,27.30
2018-07-31T09:36:49.318Z,25.25
2018-07-31T09:39:22.715Z,26.46
2018-07-31T09:41:56.078Z,28.33
2018-07-31T09:44:29.475Z,26.68
2018-07-31T09:47:02.871Z,25.75
2018-07-31T09:49:36.520Z,26.16
2018-07-31T09:52:09.997Z,25.18
2018-07-31T09:54:43.387Z,25.23
2018-07-31T09:57:16.793Z,26.61
2018-07-31T09:59:50.183Z,26.66
2018-07-31T10:02:23.580Z,25.36
2018-07-31T10:04:56.971Z,23.83
2018-07-31T10:07:30.368Z,24.34
2018-07-31T10:10:03.789Z,23.59
2018-07-31T10:12:37.251Z,23.07
2018-07-31T10:15:11.097Z,23.25
2018-07-31T10:17:44.524Z,25.05
2018-07-31T10:20:17.942Z,25.19
2018-07-31T10:22:51.604Z,25.10
2018-07-31T10:25:25.011Z,24.20
2018-07-31T10:27:58.407Z,23.25
2018-07-31T10:30:31.821Z,23.35
2018-07-31T10:33:05.265Z,23.88
2018-07-31T10:35:39.487Z,24.60
2018-07-31T10:38:12.846Z,23.73
2018-07-31T10:40:46.283Z,25.88
2018-07-31T10:43:19.759Z,23.32
2018-07-31T10:45:53.192Z,23.65
2018-07-31T10:48:26.550Z,24.19
2018-07-31T10:50:59.946Z,24.03
2018-07-31T10:53:33.372Z,26.59
2018-07-31T10:56:06.877Z,24.08
2018-07-31T10:58:40.356Z,23.36
2018-07-31T11:01:13.743Z,22.35
2018-07-31T11:03:47.186Z,23.21
2018-07-31T11:06:20.715Z,24.10
2018-07-31T11:08:54.035Z,24.44
2018-07-31T11:11:27.431Z,24.63
2018-07-31T11:14:00.819Z,23.69
2018-07-31T11:16:34.213Z,23.85
2018-07-31T11:19:07.585Z,22.97
2018-07-31T11:21:41.031Z,23.61
2018-07-31T11:24:14.470Z,23.94
2018-07-31T11:26:47.886Z,24.59
2018-07-31T11:29:21.276Z,22.76
2018-07-31T11:31:54.732Z,24.33
2018-07-31T11:34:28.497Z,22.92
2018-07-31T11:37:02.095Z,23.81
2018-07-31T11:39:35.852Z,24.21
2018-07-31T11:42:09.796Z,24.89
2018-07-31T11:44:43.366Z,24.35
2018-07-31T11:47:16.798Z,23.65
2018-07-31T11:49:50.244Z,23.25
2018-07-31T11:52:23.649Z,23.97
2018-07-31T11:54:57.149Z,23.13
2018-07-31T11:57:30.644Z,23.99
2018-07-31T12:00:05.239Z,25.99
2018-07-31T12:02:38.684Z,24.40
2018-07-31T12:05:12.092Z,24.97
2018-07-31T12:07:45.484Z,26.31
2018-07-31T12:10:18.885Z,25.12
2018-07-31T12:12:52.331Z,24.95
2018-07-31T12:15:25.781Z,24.89
2018-07-31T12:17:59.203Z,25.46
2018-07-31T12:20:32.622Z,26.01
2018-07-31T12:23:06.159Z,25.50
2018-07-31T12:25:39.565Z,25.94
2018-07-31T12:28:12.974Z,27.33
2018-07-31T12:30:46.381Z,26.31
2018-07-31T12:33:19.802Z,29.12
2018-07-31T12:35:53.250Z,26.67
2018-07-31T12:38:26.933Z,25.90
2018-07-31T12:41:00.311Z,27.12
2018-07-31T12:43:33.704Z,25.74
2018-07-31T12:46:07.140Z,24.79
2018-07-31T12:48:40.590Z,26.37
2018-07-31T12:51:13.978Z,27.12
2018-07-31T12:53:47.403Z,27.93
2018-07-31T12:56:20.831Z,27.22
2018-07-31T12:58:54.259Z,26.29
2018-07-31T13:01:27.728Z,26.18
2018-07-31T13:04:01.148Z,26.58
2018-07-31T13:06:34.603Z,26.03
2018-07-31T13:09:08.425Z,26.87
2018-07-31T13:11:41.870Z,27.61
2018-07-31T13:14:15.276Z,28.95
2018-07-31T13:16:48.799Z,28.09
2018-07-31T13:19:22.278Z,27.22
2018-07-31T13:21:55.771Z,26.80
2018-07-31T13:24:29.168Z,27.69
2018-07-31T13:27:02.559Z,25.59
2018-07-31T13:29:36.371Z,26.69
2018-07-31T13:32:09.865Z,26.42
2018-07-31T13:34:43.447Z,27.55
2018-07-31T13:37:16.986Z,27.52
2018-07-31T13:39:50.381Z,27.59
2018-07-31T13:42:24.566Z,27.54
2018-07-31T13:44:58.034Z,28.32
2018-07-31T13:47:31.455Z,26.90
2018-07-31T13:50:04.918Z,26.42
2018-07-31T13:52:38.346Z,26.11
2018-07-31T13:55:11.752Z,25.06
2018-07-31T13:57:45.226Z,25.97
2018-07-31T14:00:18.598Z,24.79
2018-07-31T14:02:51.991Z,25.06
2018-07-31T14:05:25.366Z,26.19
2018-07-31T14:07:58.757Z,27.72
2018-07-31T14:10:32.130Z,25.91
2018-07-31T14:13:05.773Z,25.61
2018-07-31T14:15:39.174Z,24.33
2018-07-31T14:18:12.568Z,25.01
2018-07-31T14:20:45.972Z,26.49
2018-07-31T14:23:19.475Z,25.75
2018-07-31T14:25:52.880Z,24.89
2018-07-31T14:28:26.284Z,24.82
2018-07-31T14:30:59.675Z,26.23
2018-07-31T14:33:33.090Z,25.90
2018-07-31T14:36:06.501Z,26.17
2018-07-31T14:38:39.959Z,25.56
2018-07-31T14:41:13.609Z,25.23
2018-07-31T14:43:47.087Z,26.30
2018-07-31T14:46:20.522Z,26.42
2018-07-31T14:48:53.931Z,26.52
2018-07-31T14:51:27.314Z,25.30
2018-07-31T14:54:01.503Z,23.99
2018-07-31T14:56:34.921Z,24.40
2018-07-31T14:59:08.319Z,24.79
2018-07-31T15:01:41.757Z,23.23
2018-07-31T15:04:15.151Z,23.47
2018-07-31T15:06:49.681Z,22.75
2018-07-31T15:09:23.076Z,22.05
2018-07-31T15:11:56.603Z,22.07
2018-07-31T15:14:30.127Z,24.09
2018-07-31T15:17:03.495Z,23.92
2018-07-31T15:19:36.967Z,22.27
2018-07-31T15:22:10.362Z,22.85
2018-07-31T15:24:43.781Z,23.33
2018-07-31T15:27:17.234Z,23.82
2018-07-31T15:29:50.649Z,24.07
2018-07-31T15:32:24.217Z,23.93
2018-07-31T15:34:57.619Z,22.87
2018-07-31T15:37:31.013Z,23.31
2018-07-31T15:40:04.719Z,23.27
2018-07-31T15:42:38.096Z,23.22
2018-07-31T15:45:11.510Z,23.69
2018-07-31T15:47:45.865Z,22.90
2018-07-31T15:50:19.307Z,22.74
2018-07-31T15:52:52.736Z,23.55
2018-07-31T15:55:26.191Z,22.57
2018-07-31T15:57:59.578Z,23.39
2018-07-31T16:00:33.284Z,23.61
2018-07-31T16:03:06.951Z,23.90
2018-07-31T16:05:40.653Z,24.10
2018-07-31T16:08:14.393Z,23.58
2018-07-31T16:10:47.862Z,24.94
2018-07-31T16:13:21.255Z,25.19
2018-07-31T16:15:54.725Z,25.19
2018-07-31T16:18:28.115Z,25.25
2018-07-31T16:21:01.510Z,24.38
2018-07-31T16:23:35.081Z,24.64
2018-07-31T16:26:08.499Z,24.64
2018-07-31T16:28:41.922Z,25.96
2018-07-31T16:31:15.334Z,25.39
2018-07-31T16:33:49.074Z,24.16
2018-07-31T16:36:22.493Z,25.18
2018-07-31T16:38:55.896Z,25.37
2018-07-31T16:41:29.356Z,25.21
2018-07-31T16:44:02.780Z,26.13
2018-07-31T16:46:36.235Z,25.16
2018-07-31T16:49:09.961Z,26.52
2018-07-31T16:51:43.471Z,26.24
2018-07-31T16:54:16.882Z,26.25
2018-07-31T16:56:50.449Z,24.93
2018-07-31T16:59:23.936Z,25.82
2018-07-31T17:01:57.355Z,24.99
2018-07-31T17:04:30.877Z,25.44
2018-07-31T17:07:04.390Z,25.45
2018-07-31T17:09:37.802Z,25.54
2018-07-31T17:12:11.465Z,26.06
2018-07-31T17:14:45.088Z,26.04
2018-07-31T17:17:18.536Z,24.58
2018-07-31T17:19:52.731Z,24.69
2018-07-31T17:22:26.168Z,25.40
2018-07-31T17:24:59.580Z,25.40
2018-07-31T17:27:32.985Z,24.79
2018-07-31T17:30:06.433Z,25.70
2018-07-31T17:32:39.904Z,25.82
2018-07-31T17:35:13.611Z,24.55
2018-07-31T17:37:47.017Z,25.07
2018-07-31T17:40:20.415Z,25.57
2018-07-31T17:42:53.787Z,25.16
2018-07-31T17:45:27.722Z,25.73
2018-07-31T17:48:01.263Z,25.46
2018-07-31T17:50:34.731Z,25.84
2018-07-31T17:53:08.171Z,25.50
2018-07-31T17:55:41.588Z,25.89
2018-07-31T17:58:15.101Z,26.15
2018-07-31T18:00:49.572Z,26.58
2018-07-31T18:03:23.738Z,26.60
2018-07-31T18:05:57.238Z,26.60
2018-07-31T18:08:30.614Z,26.61
2018-07-31T18:11:04.183Z,27.26
2018-07-31T18:13:37.705Z,28.02
2018-07-31T18:16:11.110Z,28.54
2018-07-31T18:18:44.736Z,29.58
2018-07-31T18:21:18.393Z,30.07
2018-07-31T18:23:51.775Z,31.05
2018-07-31T18:26:25.219Z,31.54
2018-07-31T18:28:58.685Z,32.11
2018-07-31T18:31:32.083Z,31.98
2018-07-31T18:34:05.545Z,33.19
2018-07-31T18:36:38.936Z,33.42
2018-07-31T18:39:13.435Z,33.62
2018-07-31T18:41:48.002Z,34.42
2018-07-31T18:44:21.818Z,34.48
2018-07-31T18:46:55.314Z,35.52
2018-07-31T18:49:28.695Z,35.02
2018-07-31T18:52:03.280Z,34.88
2018-07-31T18:54:36.774Z,35.14
2018-07-31T18:57:10.359Z,35.61
2018-07-31T18:59:44.400Z,35.86
2018-07-31T19:02:17.893Z,35.92
2018-07-31T19:04:52.277Z,36.39
2018-07-31T19:07:25.831Z,36.88
2018-07-31T19:09:59.200Z,36.74
2018-07-31T19:12:33.787Z,36.98
2018-07-31T19:15:07.203Z,37.59
2018-07-31T19:17:41.901Z,37.97
2018-07-31T19:20:17.548Z,37.58
2018-07-31T19:22:51.679Z,38.76
2018-07-31T19:25:25.143Z,39.46
2018-07-31T19:27:58.537Z,38.74
2018-07-31T19:30:31.932Z,38.67
2018-07-31T19:33:05.330Z,38.62
2018-07-31T19:35:38.711Z,39.65
2018-07-31T19:38:12.058Z,39.25
2018-07-31T19:40:45.583Z,39.56
2018-07-31T19:43:18.957Z,39.08
2018-07-31T19:45:52.351Z,39.24
2018-07-31T19:48:25.742Z,40.14
2018-07-31T19:50:59.155Z,39.78
2018-07-31T19:53:33.055Z,40.29
2018-07-31T19:56:06.491Z,40.33
2018-07-31T19:58:40.800Z,41.55
2018-07-31T20:01:15.165Z,40.50
2018-07-31T20:03:48.655Z,41.36
2018-07-31T20:06:22.583Z,41.61
2018-07-31T20:08:55.981Z,41.31
2018-07-31T20:11:30.596Z,42.58
2018-07-31T20:14:04.125Z,41.94
2018-07-31T20:16:38.007Z,42.55
2018-07-31T20:19:11.445Z,41.73
2018-07-31T20:21:45.119Z,42.99
2018-07-31T20:24:19.496Z,41.38
2018-07-31T20:26:53.493Z,41.36
2018-07-31T20:29:28.410Z,41.46
2018-07-31T20:32:01.855Z,41.89
2018-07-31T20:34:35.283Z,43.53
2018-07-31T20:37:08.710Z,42.69
2018-07-31T20:39:42.279Z,44.29
2018-07-31T20:42:15.692Z,45.11
2018-07-31T20:44:49.069Z,44.46
2018-07-31T20:47:22.501Z,42.91
2018-07-31T20:49:56.095Z,43.72
2018-07-31T20:52:29.556Z,42.89
2018-07-31T20:55:02.934Z,42.02
2018-07-31T20:57:36.548Z,43.49
2018-07-31T21:00:10.047Z,43.80
2018-07-31T21:02:43.819Z,43.07
2018-07-31T21:05:17.203Z,44.56
2018-07-31T21:07:50.602Z,42.97
2018-07-31T21:10:23.999Z,45.24
2018-07-31T21:12:57.423Z,43.66
2018-07-31T21:15:30.887Z,43.02
2018-07-31T21:18:04.957Z,44.26
2018-07-31T21:20:38.383Z,43.55
2018-07-31T21:23:11.783Z,43.52
2018-07-31T21:25:45.410Z,44.38
2018-07-31T21:28:18.854Z,43.26
2018-07-31T21:30:52.247Z,42.67
2018-07-31T21:33:25.655Z,44.36
2018-07-31T21:35:59.059Z,43.28
2018-07-31T21:38:32.456Z,43.04
2018-07-31T21:41:06.212Z,43.67
2018-07-31T21:43:39.668Z,42.18
2018-07-31T21:46:13.063Z,43.61
2018-07-31T21:48:46.479Z,43.13
2018-07-31T21:51:19.883Z,43.35
2018-07-31T21:53:53.839Z,44.23
2018-07-31T21:56:27.240Z,42.84
2018-07-31T21:59:00.648Z,44.25
2018-07-31T22:01:34.080Z,43.35
2018-07-31T22:04:07.750Z,42.38
2018-07-31T22:06:41.171Z,41.34
2018-07-31T22:09:14.576Z,41.17
2018-07-31T22:11:47.938Z,43.10
2018-07-31T22:14:21.346Z,42.64
2018-07-31T22:16:54.731Z,41.73
2018-07-31T22:19:28.128Z,41.64
2018-07-31T22:22:01.551Z,42.37
2018-07-31T22:24:34.974Z,42.81
2018-07-31T22:27:08.447Z,42.03
2018-07-31T22:29:41.836Z,44.40
2018-07-31T22:32:15.239Z,41.49
2018-07-31T22:34:48.747Z,42.35
2018-07-31T22:37:22.378Z,41.40
2018-07-31T22:39:55.942Z,41.91
2018-07-31T22:42:29.468Z,44.72
2018-07-31T22:45:02.994Z,42.36
2018-07-31T22:47:36.473Z,40.78
2018-07-31T22:50:10.032Z,41.26
2018-07-31T22:52:43.634Z,41.31
2018-07-31T22:55:17.247Z,40.64
2018-07-31T22:57:50.824Z,40.21
2018-07-31T23:00:24.197Z,40.46
2018-07-31T23:02:57.583Z,41.23
2018-07-31T23:05:30.955Z,40.93
2018-07-31T23:08:04.357Z,41.15
2018-07-31T23:10:37.736Z,41.22
2018-07-31T23:13:11.111Z,42.15
2018-07-31T23:15:44.536Z,41.08
2018-07-31T23:18:17.922Z,42.07
2018-07-31T23:20:51.369Z,41.75
2018-07-31T23:23:24.758Z,41.64
2018-07-31T23:25:58.143Z,42.77
2018-07-31T23:28:31.553Z,42.33
2018-07-31T23:31:04.935Z,42.26
2018-07-31T23:33:38.306Z,42.74
2018-07-31T23:36:11.652Z,42.74
2018-07-31T23:38:45.039Z,42.62
2018-07-31T23:41:18.416Z,42.77
2018-07-31T23:43:51.862Z,43.58
2018-07-31T23:46:25.241Z,43.27
2018-07-31T23:48:58.624Z,43.11
2018-07-31T23:51:32.000Z,42.93
2018-07-31T23:54:05.397Z,43.70
2018-07-31T23:56:39.003Z,44.32
2018-07-31T23:59:12.407Z,43.71
